sensor_id;sensor_type;location;lat;lon;timestamp;P1;durP1;ratioP1;P2;durP2;ratioP2
76053;SDS011;64752;48.870;9.082;2024-03-07T00:01:29;115.53;;;52.78;;
76053;SDS011;64752;48.870;9.082;2024-03-07T00:03:54;100.75;;;51.78;;
76053;SDS011;64752;48.870;9.082;2024-03-07T00:06:20;107.43;;;51.05;;
76053;SDS011;64752;48.870;9.082;2024-03-07T00:08:46;99.15;;;50.20;;
76053;SDS011;64752;48.870;9.082;2024-03-07T00:11:11;106.57;;;50.25;;
76053;SDS011;64752;48.870;9.082;2024-03-07T00:13:37;108.05;;;49.50;;
76053;SDS011;64752;48.870;9.082;2024-03-07T00:16:02;103.03;;;50.40;;
76053;SDS011;64752;48.870;9.082;2024-03-07T00:18:29;102.78;;;49.67;;
76053;SDS011;64752;48.870;9.082;2024-03-07T00:20:54;103.65;;;49.65;;
76053;SDS011;64752;48.870;9.082;2024-03-07T00:23:20;97.45;;;48.55;;
76053;SDS011;64752;48.870;9.082;2024-03-07T00:25:46;94.55;;;46.78;;
76053;SDS011;64752;48.870;9.082;2024-03-07T00:28:14;99.28;;;49.00;;
76053;SDS011;64752;48.870;9.082;2024-03-07T00:30:42;97.60;;;48.58;;
76053;SDS011;64752;48.870;9.082;2024-03-07T00:33:10;92.75;;;49.30;;
76053;SDS011;64752;48.870;9.082;2024-03-07T00:35:38;85.63;;;48.17;;
76053;SDS011;64752;48.870;9.082;2024-03-07T00:38:04;68.20;;;42.47;;
76053;SDS011;64752;48.870;9.082;2024-03-07T00:40:29;65.97;;;43.47;;
76053;SDS011;64752;48.870;9.082;2024-03-07T00:42:56;59.57;;;40.53;;
76053;SDS011;64752;48.870;9.082;2024-03-07T00:45:21;57.50;;;40.53;;
76053;SDS011;64752;48.870;9.082;2024-03-07T00:47:47;64.97;;;41.10;;
76053;SDS011;64752;48.870;9.082;2024-03-07T00:50:14;57.42;;;39.95;;
76053;SDS011;64752;48.870;9.082;2024-03-07T00:52:40;61.78;;;40.60;;
76053;SDS011;64752;48.870;9.082;2024-03-07T00:55:05;60.40;;;40.30;;
76053;SDS011;64752;48.870;9.082;2024-03-07T00:57:33;55.65;;;39.35;;
76053;SDS011;64752;48.870;9.082;2024-03-07T00:59:59;59.13;;;39.83;;
76053;SDS011;64752;48.870;9.082;2024-03-07T01:02:24;56.75;;;38.40;;
76053;SDS011;64752;48.870;9.082;2024-03-07T01:04:50;53.60;;;38.00;;
76053;SDS011;64752;48.870;9.082;2024-03-07T01:07:16;53.63;;;38.95;;
76053;SDS011;64752;48.870;9.082;2024-03-07T01:09:41;59.65;;;38.90;;
76053;SDS011;64752;48.870;9.082;2024-03-07T01:12:07;61.85;;;38.55;;
76053;SDS011;64752;48.870;9.082;2024-03-07T01:14:35;60.80;;;40.25;;
76053;SDS011;64752;48.870;9.082;2024-03-07T01:17:00;56.00;;;39.42;;
76053;SDS011;64752;48.870;9.082;2024-03-07T01:19:26;56.97;;;39.03;;
76053;SDS011;64752;48.870;9.082;2024-03-07T01:21:51;58.65;;;38.72;;
76053;SDS011;64752;48.870;9.082;2024-03-07T01:24:17;59.75;;;39.97;;
76053;SDS011;64752;48.870;9.082;2024-03-07T01:26:45;57.13;;;39.55;;
76053;SDS011;64752;48.870;9.082;2024-03-07T01:29:10;63.78;;;42.70;;
76053;SDS011;64752;48.870;9.082;2024-03-07T01:31:36;57.35;;;40.28;;
76053;SDS011;64752;48.870;9.082;2024-03-07T01:34:01;58.95;;;40.78;;
76053;SDS011;64752;48.870;9.082;2024-03-07T01:36:27;61.55;;;40.33;;
76053;SDS011;64752;48.870;9.082;2024-03-07T01:38:52;62.35;;;41.35;;
76053;SDS011;64752;48.870;9.082;2024-03-07T01:41:18;59.88;;;41.70;;
76053;SDS011;64752;48.870;9.082;2024-03-07T01:43:44;56.15;;;39.08;;
76053;SDS011;64752;48.870;9.082;2024-03-07T01:46:09;55.95;;;39.92;;
76053;SDS011;64752;48.870;9.082;2024-03-07T01:48:35;61.45;;;39.92;;
76053;SDS011;64752;48.870;9.082;2024-03-07T01:51:03;60.95;;;40.80;;
76053;SDS011;64752;48.870;9.082;2024-03-07T01:53:28;58.80;;;40.60;;
76053;SDS011;64752;48.870;9.082;2024-03-07T01:55:56;60.60;;;39.92;;
76053;SDS011;64752;48.870;9.082;2024-03-07T01:58:22;62.97;;;40.97;;
76053;SDS011;64752;48.870;9.082;2024-03-07T02:00:49;59.55;;;41.22;;
76053;SDS011;64752;48.870;9.082;2024-03-07T02:03:15;57.72;;;41.22;;
76053;SDS011;64752;48.870;9.082;2024-03-07T02:05:41;63.72;;;43.15;;
76053;SDS011;64752;48.870;9.082;2024-03-07T02:08:07;66.10;;;42.88;;
76053;SDS011;64752;48.870;9.082;2024-03-07T02:10:32;63.85;;;41.67;;
76053;SDS011;64752;48.870;9.082;2024-03-07T02:12:58;70.60;;;44.33;;
76053;SDS011;64752;48.870;9.082;2024-03-07T02:15:23;62.17;;;43.05;;
76053;SDS011;64752;48.870;9.082;2024-03-07T02:17:49;66.50;;;44.80;;
76053;SDS011;64752;48.870;9.082;2024-03-07T02:20:14;67.15;;;44.47;;
76053;SDS011;64752;48.870;9.082;2024-03-07T02:22:41;67.43;;;46.07;;
76053;SDS011;64752;48.870;9.082;2024-03-07T02:25:07;68.07;;;45.70;;
76053;SDS011;64752;48.870;9.082;2024-03-07T02:27:40;77.07;;;46.22;;
76053;SDS011;64752;48.870;9.082;2024-03-07T02:30:06;79.70;;;49.70;;
76053;SDS011;64752;48.870;9.082;2024-03-07T02:32:36;76.05;;;48.15;;
76053;SDS011;64752;48.870;9.082;2024-03-07T02:35:02;77.40;;;48.60;;
76053;SDS011;64752;48.870;9.082;2024-03-07T02:37:31;81.70;;;48.92;;
76053;SDS011;64752;48.870;9.082;2024-03-07T02:39:57;85.65;;;50.00;;
76053;SDS011;64752;48.870;9.082;2024-03-07T02:42:23;83.78;;;49.72;;
76053;SDS011;64752;48.870;9.082;2024-03-07T02:44:49;91.75;;;50.92;;
76053;SDS011;64752;48.870;9.082;2024-03-07T02:47:14;88.82;;;53.40;;
76053;SDS011;64752;48.870;9.082;2024-03-07T02:49:40;101.15;;;53.33;;
76053;SDS011;64752;48.870;9.082;2024-03-07T02:52:05;91.20;;;50.40;;
76053;SDS011;64752;48.870;9.082;2024-03-07T02:54:32;84.53;;;49.30;;
76053;SDS011;64752;48.870;9.082;2024-03-07T02:56:58;94.57;;;51.03;;
76053;SDS011;64752;48.870;9.082;2024-03-07T02:59:24;90.65;;;50.30;;
76053;SDS011;64752;48.870;9.082;2024-03-07T03:01:49;109.03;;;57.00;;
76053;SDS011;64752;48.870;9.082;2024-03-07T03:04:15;114.97;;;57.23;;
76053;SDS011;64752;48.870;9.082;2024-03-07T03:06:41;123.32;;;58.55;;
76053;SDS011;64752;48.870;9.082;2024-03-07T03:09:06;123.40;;;58.78;;
76053;SDS011;64752;48.870;9.082;2024-03-07T03:11:31;122.15;;;60.53;;
76053;SDS011;64752;48.870;9.082;2024-03-07T03:13:57;131.50;;;62.92;;
76053;SDS011;64752;48.870;9.082;2024-03-07T03:16:23;147.07;;;64.97;;
76053;SDS011;64752;48.870;9.082;2024-03-07T03:18:48;147.35;;;63.30;;
76053;SDS011;64752;48.870;9.082;2024-03-07T03:21:14;128.70;;;59.45;;
76053;SDS011;64752;48.870;9.082;2024-03-07T03:23:41;138.60;;;62.03;;
76053;SDS011;64752;48.870;9.082;2024-03-07T03:26:06;133.38;;;60.63;;
76053;SDS011;64752;48.870;9.082;2024-03-07T03:28:32;137.00;;;64.00;;
76053;SDS011;64752;48.870;9.082;2024-03-07T03:30:57;138.55;;;62.72;;
76053;SDS011;64752;48.870;9.082;2024-03-07T03:33:23;129.18;;;59.80;;
76053;SDS011;64752;48.870;9.082;2024-03-07T03:35:51;137.18;;;61.35;;
76053;SDS011;64752;48.870;9.082;2024-03-07T03:38:17;138.98;;;60.33;;
76053;SDS011;64752;48.870;9.082;2024-03-07T03:40:44;135.35;;;61.42;;
76053;SDS011;64752;48.870;9.082;2024-03-07T03:43:10;162.50;;;65.25;;
76053;SDS011;64752;48.870;9.082;2024-03-07T03:45:35;163.98;;;67.00;;
76053;SDS011;64752;48.870;9.082;2024-03-07T03:48:02;164.55;;;68.50;;
76053;SDS011;64752;48.870;9.082;2024-03-07T03:50:27;166.57;;;69.90;;
76053;SDS011;64752;48.870;9.082;2024-03-07T03:52:53;166.40;;;68.13;;
76053;SDS011;64752;48.870;9.082;2024-03-07T03:55:20;164.48;;;69.03;;
76053;SDS011;64752;48.870;9.082;2024-03-07T03:57:48;170.85;;;69.45;;
76053;SDS011;64752;48.870;9.082;2024-03-07T04:00:13;163.73;;;69.90;;
76053;SDS011;64752;48.870;9.082;2024-03-07T04:02:40;186.15;;;71.22;;
76053;SDS011;64752;48.870;9.082;2024-03-07T04:05:06;187.70;;;72.82;;
76053;SDS011;64752;48.870;9.082;2024-03-07T04:07:32;188.80;;;73.43;;
76053;SDS011;64752;48.870;9.082;2024-03-07T04:09:57;181.02;;;71.75;;
76053;SDS011;64752;48.870;9.082;2024-03-07T04:12:23;175.98;;;71.00;;
76053;SDS011;64752;48.870;9.082;2024-03-07T04:14:51;179.35;;;69.15;;
76053;SDS011;64752;48.870;9.082;2024-03-07T04:17:19;174.07;;;69.80;;
76053;SDS011;64752;48.870;9.082;2024-03-07T04:19:45;176.23;;;71.75;;
76053;SDS011;64752;48.870;9.082;2024-03-07T04:22:11;186.45;;;71.45;;
76053;SDS011;64752;48.870;9.082;2024-03-07T04:24:37;196.13;;;74.25;;
76053;SDS011;64752;48.870;9.082;2024-03-07T04:27:03;180.90;;;73.15;;
76053;SDS011;64752;48.870;9.082;2024-03-07T04:29:32;186.98;;;72.43;;
76053;SDS011;64752;48.870;9.082;2024-03-07T04:31:58;186.07;;;73.38;;
76053;SDS011;64752;48.870;9.082;2024-03-07T04:34:29;184.82;;;71.57;;
76053;SDS011;64752;48.870;9.082;2024-03-07T04:36:57;176.43;;;70.03;;
76053;SDS011;64752;48.870;9.082;2024-03-07T04:39:25;172.02;;;69.28;;
76053;SDS011;64752;48.870;9.082;2024-03-07T04:42:00;158.52;;;68.72;;
76053;SDS011;64752;48.870;9.082;2024-03-07T04:44:29;156.68;;;68.97;;
76053;SDS011;64752;48.870;9.082;2024-03-07T04:46:55;152.85;;;65.65;;
76053;SDS011;64752;48.870;9.082;2024-03-07T04:49:24;138.45;;;63.80;;
76053;SDS011;64752;48.870;9.082;2024-03-07T04:51:53;134.77;;;62.80;;
76053;SDS011;64752;48.870;9.082;2024-03-07T04:54:20;129.10;;;62.30;;
76053;SDS011;64752;48.870;9.082;2024-03-07T04:56:47;137.55;;;62.20;;
76053;SDS011;64752;48.870;9.082;2024-03-07T04:59:14;128.45;;;61.80;;
76053;SDS011;64752;48.870;9.082;2024-03-07T05:01:40;131.10;;;63.08;;
76053;SDS011;64752;48.870;9.082;2024-03-07T05:04:05;128.00;;;61.08;;
76053;SDS011;64752;48.870;9.082;2024-03-07T05:06:31;121.37;;;57.27;;
76053;SDS011;64752;48.870;9.082;2024-03-07T05:09:03;127.32;;;60.17;;
76053;SDS011;64752;48.870;9.082;2024-03-07T05:11:30;122.05;;;60.42;;
76053;SDS011;64752;48.870;9.082;2024-03-07T05:13:56;125.40;;;60.60;;
76053;SDS011;64752;48.870;9.082;2024-03-07T05:16:25;114.95;;;58.10;;
76053;SDS011;64752;48.870;9.082;2024-03-07T05:18:51;130.80;;;60.45;;
76053;SDS011;64752;48.870;9.082;2024-03-07T05:21:17;130.93;;;61.90;;
76053;SDS011;64752;48.870;9.082;2024-03-07T05:23:58;127.68;;;62.28;;
76053;SDS011;64752;48.870;9.082;2024-03-07T05:26:24;127.55;;;59.58;;
76053;SDS011;64752;48.870;9.082;2024-03-07T05:28:51;127.72;;;58.60;;
76053;SDS011;64752;48.870;9.082;2024-03-07T05:31:28;123.57;;;62.40;;
76053;SDS011;64752;48.870;9.082;2024-03-07T05:33:53;118.30;;;59.08;;
76053;SDS011;64752;48.870;9.082;2024-03-07T05:36:18;122.80;;;60.93;;
76053;SDS011;64752;48.870;9.082;2024-03-07T05:38:44;115.67;;;57.20;;
76053;SDS011;64752;48.870;9.082;2024-03-07T05:41:12;115.25;;;57.28;;
76053;SDS011;64752;48.870;9.082;2024-03-07T05:43:38;120.38;;;57.13;;
76053;SDS011;64752;48.870;9.082;2024-03-07T05:46:04;113.18;;;56.92;;
76053;SDS011;64752;48.870;9.082;2024-03-07T05:48:32;108.20;;;54.30;;
76053;SDS011;64752;48.870;9.082;2024-03-07T05:50:58;110.90;;;56.75;;
76053;SDS011;64752;48.870;9.082;2024-03-07T05:55:50;99.28;;;51.15;;
76053;SDS011;64752;48.870;9.082;2024-03-07T05:58:16;119.97;;;56.75;;
76053;SDS011;64752;48.870;9.082;2024-03-07T06:00:45;116.32;;;57.30;;
76053;SDS011;64752;48.870;9.082;2024-03-07T06:03:16;105.85;;;54.20;;
76053;SDS011;64752;48.870;9.082;2024-03-07T06:05:44;108.30;;;56.03;;
76053;SDS011;64752;48.870;9.082;2024-03-07T06:08:13;101.75;;;53.38;;
76053;SDS011;64752;48.870;9.082;2024-03-07T06:10:41;106.28;;;54.95;;
76053;SDS011;64752;48.870;9.082;2024-03-07T06:13:06;114.07;;;56.05;;
76053;SDS011;64752;48.870;9.082;2024-03-07T06:15:32;103.37;;;54.73;;
76053;SDS011;64752;48.870;9.082;2024-03-07T06:17:57;107.68;;;53.63;;
76053;SDS011;64752;48.870;9.082;2024-03-07T06:20:25;107.47;;;54.38;;
76053;SDS011;64752;48.870;9.082;2024-03-07T06:22:51;106.30;;;56.40;;
76053;SDS011;64752;48.870;9.082;2024-03-07T06:25:17;108.00;;;55.35;;
76053;SDS011;64752;48.870;9.082;2024-03-07T06:27:58;106.70;;;55.35;;
76053;SDS011;64752;48.870;9.082;2024-03-07T06:30:24;116.30;;;57.43;;
76053;SDS011;64752;48.870;9.082;2024-03-07T06:32:50;117.25;;;57.17;;
76053;SDS011;64752;48.870;9.082;2024-03-07T06:35:16;111.47;;;57.10;;
76053;SDS011;64752;48.870;9.082;2024-03-07T06:37:41;109.37;;;59.13;;
76053;SDS011;64752;48.870;9.082;2024-03-07T06:40:08;117.45;;;60.33;;
76053;SDS011;64752;48.870;9.082;2024-03-07T06:45:02;114.40;;;62.25;;
76053;SDS011;64752;48.870;9.082;2024-03-07T06:47:28;116.95;;;59.95;;
76053;SDS011;64752;48.870;9.082;2024-03-07T06:49:53;108.43;;;57.05;;
76053;SDS011;64752;48.870;9.082;2024-03-07T06:52:18;89.68;;;54.20;;
76053;SDS011;64752;48.870;9.082;2024-03-07T06:54:44;93.68;;;54.28;;
76053;SDS011;64752;48.870;9.082;2024-03-07T06:57:09;78.07;;;50.22;;
76053;SDS011;64752;48.870;9.082;2024-03-07T06:59:35;71.22;;;46.63;;
76053;SDS011;64752;48.870;9.082;2024-03-07T07:02:01;64.32;;;43.63;;
76053;SDS011;64752;48.870;9.082;2024-03-07T07:04:28;66.00;;;43.90;;
76053;SDS011;64752;48.870;9.082;2024-03-07T07:07:07;52.33;;;37.65;;
76053;SDS011;64752;48.870;9.082;2024-03-07T07:09:33;52.67;;;35.85;;
76053;SDS011;64752;48.870;9.082;2024-03-07T07:12:00;53.47;;;38.17;;
76053;SDS011;64752;48.870;9.082;2024-03-07T07:14:28;42.28;;;32.60;;
76053;SDS011;64752;48.870;9.082;2024-03-07T07:16:53;41.78;;;30.17;;
76053;SDS011;64752;48.870;9.082;2024-03-07T07:19:19;41.75;;;28.95;;
76053;SDS011;64752;48.870;9.082;2024-03-07T07:21:44;35.88;;;27.48;;
76053;SDS011;64752;48.870;9.082;2024-03-07T07:24:10;38.85;;;26.27;;
76053;SDS011;64752;48.870;9.082;2024-03-07T07:26:39;33.75;;;25.73;;
76053;SDS011;64752;48.870;9.082;2024-03-07T07:29:04;35.15;;;24.83;;
76053;SDS011;64752;48.870;9.082;2024-03-07T07:31:30;32.90;;;25.67;;
76053;SDS011;64752;48.870;9.082;2024-03-07T07:33:57;36.55;;;24.95;;
76053;SDS011;64752;48.870;9.082;2024-03-07T07:36:23;35.28;;;24.38;;
76053;SDS011;64752;48.870;9.082;2024-03-07T07:38:48;31.10;;;24.13;;
76053;SDS011;64752;48.870;9.082;2024-03-07T07:41:13;29.98;;;23.67;;
76053;SDS011;64752;48.870;9.082;2024-03-07T07:43:40;30.67;;;22.60;;
76053;SDS011;64752;48.870;9.082;2024-03-07T07:46:06;28.95;;;23.02;;
76053;SDS011;64752;48.870;9.082;2024-03-07T07:48:32;31.60;;;23.73;;
76053;SDS011;64752;48.870;9.082;2024-03-07T07:50:57;28.20;;;22.52;;
76053;SDS011;64752;48.870;9.082;2024-03-07T07:53:23;35.40;;;23.75;;
76053;SDS011;64752;48.870;9.082;2024-03-07T07:55:48;28.17;;;21.60;;
76053;SDS011;64752;48.870;9.082;2024-03-07T07:58:14;24.80;;;20.42;;
76053;SDS011;64752;48.870;9.082;2024-03-07T08:00:39;28.05;;;20.70;;
76053;SDS011;64752;48.870;9.082;2024-03-07T08:03:08;26.90;;;19.63;;
76053;SDS011;64752;48.870;9.082;2024-03-07T08:05:34;25.40;;;20.92;;
76053;SDS011;64752;48.870;9.082;2024-03-07T08:08:04;26.92;;;20.10;;
76053;SDS011;64752;48.870;9.082;2024-03-07T08:10:31;25.02;;;19.27;;
76053;SDS011;64752;48.870;9.082;2024-03-07T08:13:02;24.73;;;19.55;;
76053;SDS011;64752;48.870;9.082;2024-03-07T08:15:29;29.20;;;19.35;;
76053;SDS011;64752;48.870;9.082;2024-03-07T08:17:55;25.67;;;20.38;;
76053;SDS011;64752;48.870;9.082;2024-03-07T08:20:22;28.95;;;19.98;;
76053;SDS011;64752;48.870;9.082;2024-03-07T08:22:49;26.23;;;20.88;;
76053;SDS011;64752;48.870;9.082;2024-03-07T08:25:22;26.23;;;19.30;;
76053;SDS011;64752;48.870;9.082;2024-03-07T08:27:50;25.85;;;19.33;;
76053;SDS011;64752;48.870;9.082;2024-03-07T08:30:18;24.63;;;18.15;;
76053;SDS011;64752;48.870;9.082;2024-03-07T08:32:50;22.30;;;17.45;;
76053;SDS011;64752;48.870;9.082;2024-03-07T08:35:17;21.50;;;17.90;;
76053;SDS011;64752;48.870;9.082;2024-03-07T08:37:43;22.63;;;18.20;;
76053;SDS011;64752;48.870;9.082;2024-03-07T08:40:18;27.25;;;18.95;;
76053;SDS011;64752;48.870;9.082;2024-03-07T08:45:19;27.02;;;19.60;;
76053;SDS011;64752;48.870;9.082;2024-03-07T08:47:45;25.65;;;21.00;;
76053;SDS011;64752;48.870;9.082;2024-03-07T08:50:12;25.90;;;20.10;;
76053;SDS011;64752;48.870;9.082;2024-03-07T08:52:38;26.50;;;20.58;;
76053;SDS011;64752;48.870;9.082;2024-03-07T08:55:05;25.77;;;20.27;;
76053;SDS011;64752;48.870;9.082;2024-03-07T08:57:31;27.38;;;20.63;;
76053;SDS011;64752;48.870;9.082;2024-03-07T08:59:56;25.33;;;19.65;;
76053;SDS011;64752;48.870;9.082;2024-03-07T09:02:22;27.47;;;18.97;;
76053;SDS011;64752;48.870;9.082;2024-03-07T09:04:48;28.23;;;19.92;;
76053;SDS011;64752;48.870;9.082;2024-03-07T09:07:14;25.23;;;19.55;;
76053;SDS011;64752;48.870;9.082;2024-03-07T09:09:42;26.23;;;19.75;;
76053;SDS011;64752;48.870;9.082;2024-03-07T09:12:08;24.08;;;19.50;;
76053;SDS011;64752;48.870;9.082;2024-03-07T09:14:34;29.25;;;20.48;;
76053;SDS011;64752;48.870;9.082;2024-03-07T09:17:00;29.88;;;21.92;;
76053;SDS011;64752;48.870;9.082;2024-03-07T09:19:26;27.92;;;21.05;;
76053;SDS011;64752;48.870;9.082;2024-03-07T09:21:52;32.95;;;21.48;;
76053;SDS011;64752;48.870;9.082;2024-03-07T09:24:18;30.27;;;22.17;;
76053;SDS011;64752;48.870;9.082;2024-03-07T09:26:47;28.70;;;22.58;;
76053;SDS011;64752;48.870;9.082;2024-03-07T09:29:13;31.88;;;22.85;;
76053;SDS011;64752;48.870;9.082;2024-03-07T09:31:39;28.95;;;23.05;;
76053;SDS011;64752;48.870;9.082;2024-03-07T09:34:05;28.75;;;21.92;;
76053;SDS011;64752;48.870;9.082;2024-03-07T09:36:30;30.15;;;22.73;;
76053;SDS011;64752;48.870;9.082;2024-03-07T09:38:56;29.25;;;23.15;;
76053;SDS011;64752;48.870;9.082;2024-03-07T09:41:22;29.52;;;21.77;;
76053;SDS011;64752;48.870;9.082;2024-03-07T09:43:51;31.00;;;23.50;;
76053;SDS011;64752;48.870;9.082;2024-03-07T09:46:23;32.15;;;23.00;;
76053;SDS011;64752;48.870;9.082;2024-03-07T09:48:49;31.35;;;22.92;;
76053;SDS011;64752;48.870;9.082;2024-03-07T09:51:18;29.90;;;22.50;;
76053;SDS011;64752;48.870;9.082;2024-03-07T09:53:44;31.98;;;21.92;;
76053;SDS011;64752;48.870;9.082;2024-03-07T09:58:38;35.00;;;22.60;;
76053;SDS011;64752;48.870;9.082;2024-03-07T10:01:05;31.77;;;23.38;;
76053;SDS011;64752;48.870;9.082;2024-03-07T10:03:41;30.02;;;22.80;;
76053;SDS011;64752;48.870;9.082;2024-03-07T10:06:10;31.70;;;23.75;;
76053;SDS011;64752;48.870;9.082;2024-03-07T10:08:35;29.55;;;22.17;;
76053;SDS011;64752;48.870;9.082;2024-03-07T10:11:01;30.90;;;22.55;;
76053;SDS011;64752;48.870;9.082;2024-03-07T10:13:27;27.35;;;21.25;;
76053;SDS011;64752;48.870;9.082;2024-03-07T10:15:53;33.60;;;22.20;;
76053;SDS011;64752;48.870;9.082;2024-03-07T10:18:27;30.33;;;20.13;;
76053;SDS011;64752;48.870;9.082;2024-03-07T10:20:54;26.02;;;20.38;;
76053;SDS011;64752;48.870;9.082;2024-03-07T10:23:20;29.58;;;21.13;;
76053;SDS011;64752;48.870;9.082;2024-03-07T10:25:52;26.13;;;20.47;;
76053;SDS011;64752;48.870;9.082;2024-03-07T10:28:19;28.33;;;19.65;;
76053;SDS011;64752;48.870;9.082;2024-03-07T10:30:49;25.27;;;21.23;;
76053;SDS011;64752;48.870;9.082;2024-03-07T10:33:15;25.27;;;19.80;;
76053;SDS011;64752;48.870;9.082;2024-03-07T10:38:07;28.10;;;20.40;;
76053;SDS011;64752;48.870;9.082;2024-03-07T10:40:33;25.40;;;19.90;;
76053;SDS011;64752;48.870;9.082;2024-03-07T10:43:02;25.50;;;20.00;;
76053;SDS011;64752;48.870;9.082;2024-03-07T10:45:44;28.10;;;21.20;;
76053;SDS011;64752;48.870;9.082;2024-03-07T10:48:13;24.42;;;20.02;;
76053;SDS011;64752;48.870;9.082;2024-03-07T10:53:50;28.20;;;20.80;;
76053;SDS011;64752;48.870;9.082;2024-03-07T10:59:34;30.50;;;20.88;;
76053;SDS011;64752;48.870;9.082;2024-03-07T11:02:14;28.13;;;21.17;;
76053;SDS011;64752;48.870;9.082;2024-03-07T11:04:47;28.17;;;20.85;;
76053;SDS011;64752;48.870;9.082;2024-03-07T11:07:20;30.17;;;22.52;;
76053;SDS011;64752;48.870;9.082;2024-03-07T11:09:56;27.42;;;21.33;;
76053;SDS011;64752;48.870;9.082;2024-03-07T11:12:23;29.08;;;23.13;;
76053;SDS011;64752;48.870;9.082;2024-03-07T11:14:50;31.73;;;23.15;;
76053;SDS011;64752;48.870;9.082;2024-03-07T11:17:20;31.65;;;24.55;;
76053;SDS011;64752;48.870;9.082;2024-03-07T11:19:47;32.47;;;24.33;;
76053;SDS011;64752;48.870;9.082;2024-03-07T11:22:30;33.97;;;24.90;;
76053;SDS011;64752;48.870;9.082;2024-03-07T11:25:01;34.17;;;25.17;;
76053;SDS011;64752;48.870;9.082;2024-03-07T11:27:31;36.22;;;25.02;;
76053;SDS011;64752;48.870;9.082;2024-03-07T11:30:04;36.85;;;24.42;;
76053;SDS011;64752;48.870;9.082;2024-03-07T11:32:34;29.75;;;23.95;;
76053;SDS011;64752;48.870;9.082;2024-03-07T11:35:03;33.28;;;24.55;;
76053;SDS011;64752;48.870;9.082;2024-03-07T11:37:47;34.63;;;24.00;;
76053;SDS011;64752;48.870;9.082;2024-03-07T11:40:13;35.78;;;24.98;;
76053;SDS011;64752;48.870;9.082;2024-03-07T11:43:00;33.70;;;24.83;;
76053;SDS011;64752;48.870;9.082;2024-03-07T11:45:29;33.97;;;25.20;;
76053;SDS011;64752;48.870;9.082;2024-03-07T11:47:59;36.75;;;25.73;;
76053;SDS011;64752;48.870;9.082;2024-03-07T11:50:26;37.78;;;25.27;;
76053;SDS011;64752;48.870;9.082;2024-03-07T11:52:54;35.08;;;25.80;;
76053;SDS011;64752;48.870;9.082;2024-03-07T11:55:21;31.70;;;24.73;;
76053;SDS011;64752;48.870;9.082;2024-03-07T11:57:47;34.17;;;24.67;;
76053;SDS011;64752;48.870;9.082;2024-03-07T12:00:14;35.30;;;24.08;;
76053;SDS011;64752;48.870;9.082;2024-03-07T12:02:41;37.00;;;25.95;;
76053;SDS011;64752;48.870;9.082;2024-03-07T12:07:34;36.47;;;25.50;;
76053;SDS011;64752;48.870;9.082;2024-03-07T12:10:00;37.92;;;27.13;;
76053;SDS011;64752;48.870;9.082;2024-03-07T12:12:28;34.78;;;25.08;;
76053;SDS011;64752;48.870;9.082;2024-03-07T12:14:54;36.65;;;26.27;;
76053;SDS011;64752;48.870;9.082;2024-03-07T12:17:20;36.13;;;24.98;;
76053;SDS011;64752;48.870;9.082;2024-03-07T12:19:46;37.17;;;26.55;;
76053;SDS011;64752;48.870;9.082;2024-03-07T12:22:12;34.45;;;25.27;;
76053;SDS011;64752;48.870;9.082;2024-03-07T12:24:41;35.20;;;25.85;;
76053;SDS011;64752;48.870;9.082;2024-03-07T12:27:11;35.75;;;25.77;;
76053;SDS011;64752;48.870;9.082;2024-03-07T12:29:40;35.75;;;25.05;;
76053;SDS011;64752;48.870;9.082;2024-03-07T12:32:13;35.65;;;26.02;;
76053;SDS011;64752;48.870;9.082;2024-03-07T12:34:38;33.90;;;24.92;;
76053;SDS011;64752;48.870;9.082;2024-03-07T12:37:10;37.05;;;26.42;;
76053;SDS011;64752;48.870;9.082;2024-03-07T12:39:35;39.63;;;26.40;;
76053;SDS011;64752;48.870;9.082;2024-03-07T12:42:03;34.17;;;26.90;;
76053;SDS011;64752;48.870;9.082;2024-03-07T12:44:39;33.03;;;24.07;;
76053;SDS011;64752;48.870;9.082;2024-03-07T12:47:12;33.58;;;24.77;;
76053;SDS011;64752;48.870;9.082;2024-03-07T12:49:42;33.58;;;25.23;;
76053;SDS011;64752;48.870;9.082;2024-03-07T12:52:08;36.03;;;26.08;;
76053;SDS011;64752;48.870;9.082;2024-03-07T12:54:36;33.03;;;25.88;;
76053;SDS011;64752;48.870;9.082;2024-03-07T12:59:39;36.15;;;27.25;;
76053;SDS011;64752;48.870;9.082;2024-03-07T13:04:34;36.67;;;27.23;;
76053;SDS011;64752;48.870;9.082;2024-03-07T13:06:59;35.78;;;26.73;;
76053;SDS011;64752;48.870;9.082;2024-03-07T13:09:29;38.30;;;27.48;;
76053;SDS011;64752;48.870;9.082;2024-03-07T13:11:56;37.60;;;27.17;;
76053;SDS011;64752;48.870;9.082;2024-03-07T13:14:22;36.90;;;26.02;;
76053;SDS011;64752;48.870;9.082;2024-03-07T13:16:47;41.35;;;27.40;;
76053;SDS011;64752;48.870;9.082;2024-03-07T13:19:13;34.20;;;25.90;;
76053;SDS011;64752;48.870;9.082;2024-03-07T13:21:39;38.13;;;25.05;;
76053;SDS011;64752;48.870;9.082;2024-03-07T13:24:05;38.97;;;25.88;;
76053;SDS011;64752;48.870;9.082;2024-03-07T13:26:31;33.10;;;24.85;;
76053;SDS011;64752;48.870;9.082;2024-03-07T13:28:57;35.65;;;26.27;;
76053;SDS011;64752;48.870;9.082;2024-03-07T13:31:26;33.88;;;26.00;;
76053;SDS011;64752;48.870;9.082;2024-03-07T13:36:20;31.95;;;23.05;;
76053;SDS011;64752;48.870;9.082;2024-03-07T13:38:51;32.88;;;23.63;;
76053;SDS011;64752;48.870;9.082;2024-03-07T13:41:20;34.13;;;25.05;;
76053;SDS011;64752;48.870;9.082;2024-03-07T13:43:45;33.03;;;24.08;;
76053;SDS011;64752;48.870;9.082;2024-03-07T13:46:12;33.08;;;24.33;;
76053;SDS011;64752;48.870;9.082;2024-03-07T13:48:38;34.35;;;24.40;;
76053;SDS011;64752;48.870;9.082;2024-03-07T13:51:05;33.63;;;24.15;;
76053;SDS011;64752;48.870;9.082;2024-03-07T13:53:33;32.45;;;24.35;;
76053;SDS011;64752;48.870;9.082;2024-03-07T14:12:15;36.17;;;25.02;;
76053;SDS011;64752;48.870;9.082;2024-03-07T14:15:29;37.25;;;26.70;;
76053;SDS011;64752;48.870;9.082;2024-03-07T14:30:05;35.70;;;25.30;;
76053;SDS011;64752;48.870;9.082;2024-03-07T14:32:51;33.35;;;25.33;;
76053;SDS011;64752;48.870;9.082;2024-03-07T14:38:37;34.58;;;25.10;;
76053;SDS011;64752;48.870;9.082;2024-03-07T14:41:06;34.88;;;25.40;;
76053;SDS011;64752;48.870;9.082;2024-03-07T14:43:33;37.53;;;25.92;;
76053;SDS011;64752;48.870;9.082;2024-03-07T14:45:59;34.42;;;26.52;;
76053;SDS011;64752;48.870;9.082;2024-03-07T14:48:25;32.75;;;26.20;;
76053;SDS011;64752;48.870;9.082;2024-03-07T14:50:50;35.80;;;26.42;;
76053;SDS011;64752;48.870;9.082;2024-03-07T14:53:16;34.33;;;26.35;;
76053;SDS011;64752;48.870;9.082;2024-03-07T14:55:42;35.88;;;26.77;;
76053;SDS011;64752;48.870;9.082;2024-03-07T14:58:08;33.78;;;26.33;;
76053;SDS011;64752;48.870;9.082;2024-03-07T15:00:34;35.40;;;26.27;;
76053;SDS011;64752;48.870;9.082;2024-03-07T15:03:06;37.80;;;25.90;;
76053;SDS011;64752;48.870;9.082;2024-03-07T15:05:34;37.17;;;27.27;;
76053;SDS011;64752;48.870;9.082;2024-03-07T15:08:00;40.43;;;27.90;;
76053;SDS011;64752;48.870;9.082;2024-03-07T15:10:27;35.55;;;26.25;;
76053;SDS011;64752;48.870;9.082;2024-03-07T15:12:57;35.85;;;27.08;;
76053;SDS011;64752;48.870;9.082;2024-03-07T15:15:22;37.22;;;26.45;;
76053;SDS011;64752;48.870;9.082;2024-03-07T15:17:49;35.50;;;25.67;;
76053;SDS011;64752;48.870;9.082;2024-03-07T15:20:18;35.58;;;25.30;;